createdAt,value
2023-03-24T00:00:10.863Z,1.20
2023-03-24T00:02:41.359Z,0.65
2023-03-24T00:05:19.831Z,0.82
2023-03-24T00:07:46.987Z,0.90
2023-03-24T00:10:18.978Z,0.85
2023-03-24T00:12:46.854Z,0.98
2023-03-24T00:15:20.210Z,0.70
2023-03-24T00:17:50.289Z,0.95
2023-03-24T00:20:19.870Z,0.88
2023-03-24T00:22:50.736Z,0.90
2023-03-24T00:25:19.627Z,0.90
2023-03-24T00:27:48.784Z,0.75
2023-03-24T00:30:17.618Z,0.60
2023-03-24T00:32:46.192Z,1.02
2023-03-24T00:35:16.247Z,1.00
2023-03-24T00:37:44.457Z,0.90
2023-03-24T00:40:17.600Z,1.00
2023-03-24T00:42:46.429Z,0.90
2023-03-24T00:45:16.082Z,0.88
2023-03-24T00:47:44.674Z,0.70
2023-03-24T00:50:17.405Z,1.00
2023-03-24T00:52:47.894Z,0.50
2023-03-24T00:55:16.002Z,1.20
2023-03-24T00:57:50.541Z,0.98
2023-03-24T01:00:24.288Z,0.63
2023-03-24T01:02:55.373Z,0.50
2023-03-24T01:05:24.703Z,0.70
2023-03-24T01:07:52.262Z,0.90
2023-03-24T01:10:26.008Z,0.63
2023-03-24T01:12:55.742Z,0.80
2023-03-24T01:15:24.630Z,0.77
2023-03-24T01:17:53.309Z,0.65
2023-03-24T01:20:22.879Z,0.88
2023-03-24T01:22:50.829Z,0.80
2023-03-24T01:25:23.138Z,0.80
2023-03-24T01:27:52.191Z,0.80
2023-03-24T01:30:22.348Z,0.70
2023-03-24T01:32:49.094Z,0.85
2023-03-24T01:35:16.315Z,0.63
2023-03-24T01:37:42.912Z,0.50
2023-03-24T01:40:16.269Z,0.95
2023-03-24T01:42:42.888Z,0.98
2023-03-24T01:45:37.592Z,0.60
2023-03-24T01:48:16.421Z,0.60
2023-03-24T01:50:52.543Z,0.80
2023-03-24T01:53:20.771Z,0.90
2023-03-24T01:55:48.670Z,0.65
2023-03-24T01:58:20.673Z,0.70
2023-03-24T02:00:57.941Z,0.52
2023-03-24T02:03:52.833Z,0.55
2023-03-24T02:06:20.122Z,0.93
2023-03-24T02:09:01.407Z,0.80
2023-03-24T02:11:33.498Z,0.70
2023-03-24T02:14:04.955Z,0.60
2023-03-24T02:16:58.059Z,0.55
2023-03-24T02:19:47.823Z,0.52
2023-03-24T02:22:20.649Z,0.50
2023-03-24T02:25:32.085Z,0.90
2023-03-24T02:28:10.630Z,0.80
2023-03-24T02:30:46.417Z,0.73
2023-03-24T02:33:48.986Z,0.88
2023-03-24T02:36:34.141Z,0.70
2023-03-24T02:39:25.953Z,0.50
2023-03-24T02:42:23.322Z,0.73
2023-03-24T02:45:25.297Z,0.73
2023-03-24T02:48:08.484Z,0.80
2023-03-24T02:50:54.878Z,0.40
2023-03-24T02:53:35.688Z,0.80
2023-03-24T02:56:39.321Z,0.60
2023-03-24T02:59:23.235Z,0.60
2023-03-24T03:02:07.085Z,0.70
2023-03-24T03:04:46.115Z,0.90
2023-03-24T03:07:16.719Z,0.52
2023-03-24T03:09:49.641Z,0.60
2023-03-24T03:12:19.481Z,0.63
2023-03-24T03:14:51.386Z,0.50
2023-03-24T03:17:30.655Z,0.60
2023-03-24T03:20:06.650Z,0.60
2023-03-24T03:22:44.640Z,0.98
2023-03-24T03:25:13.570Z,0.68
2023-03-24T03:27:44.195Z,0.90
2023-03-24T03:30:40.338Z,0.68
2023-03-24T03:33:18.213Z,0.80
2023-03-24T03:35:51.582Z,0.50
2023-03-24T03:38:26.221Z,0.80
2023-03-24T03:40:59.457Z,0.50
2023-03-24T03:43:32.980Z,0.63
2023-03-24T03:46:01.051Z,0.82
2023-03-24T03:48:34.293Z,0.60
2023-03-24T03:51:13.105Z,1.08
2023-03-24T03:53:44.930Z,0.80
2023-03-24T03:56:12.625Z,0.60
2023-03-24T03:58:50.115Z,0.60
2023-03-24T04:01:21.439Z,0.90
2023-03-24T04:04:37.958Z,0.70
2023-03-24T04:07:28.492Z,0.80
2023-03-24T04:10:29.938Z,0.50
2023-03-24T04:13:00.092Z,0.68
2023-03-24T04:15:51.561Z,0.90
2023-03-24T04:18:58.339Z,1.17
2023-03-24T04:21:33.432Z,0.47
2023-03-24T04:24:27.252Z,0.70
2023-03-24T04:27:06.999Z,0.80
2023-03-24T04:29:34.517Z,0.63
2023-03-24T04:32:22.360Z,0.50
2023-03-24T04:35:14.366Z,1.02
2023-03-24T04:38:25.746Z,0.65
2023-03-24T04:41:06.648Z,0.50
2023-03-24T04:43:37.356Z,0.77
2023-03-24T04:46:08.466Z,0.77
2023-03-24T04:49:07.969Z,1.10
2023-03-24T04:51:37.129Z,0.68
2023-03-24T04:54:06.379Z,0.57
2023-03-24T04:56:47.493Z,0.80
2023-03-24T04:59:37.308Z,1.02
2023-03-24T05:02:06.839Z,0.90
2023-03-24T05:04:43.496Z,0.90
2023-03-24T05:07:21.268Z,1.00
2023-03-24T05:09:50.902Z,1.00
2023-03-24T05:12:17.736Z,0.82
2023-03-24T05:15:07.351Z,0.80
2023-03-24T05:17:35.397Z,0.68
2023-03-24T05:20:03.966Z,0.63
2023-03-24T05:22:30.541Z,0.70
2023-03-24T05:24:57.078Z,0.75
2023-03-24T05:27:23.839Z,0.80
2023-03-24T05:29:50.706Z,0.82
2023-03-24T05:32:22.523Z,0.85
2023-03-24T05:34:49.053Z,0.90
2023-03-24T05:37:18.059Z,0.93
2023-03-24T05:39:49.247Z,0.57
2023-03-24T05:42:36.386Z,0.95
2023-03-24T05:45:05.080Z,0.63
2023-03-24T05:47:31.793Z,0.90
2023-03-24T05:49:58.384Z,0.90
2023-03-24T05:52:27.419Z,0.80
2023-03-24T05:55:04.489Z,0.95
2023-03-24T05:57:31.143Z,0.73
2023-03-24T06:00:20.721Z,0.63
2023-03-24T06:02:56.830Z,0.90
2023-03-24T06:05:28.164Z,1.08
2023-03-24T06:07:58.926Z,0.80
2023-03-24T06:10:29.222Z,0.60
2023-03-24T06:12:56.972Z,0.70
2023-03-24T06:15:27.549Z,0.70
2023-03-24T06:18:00.909Z,1.00
2023-03-24T06:20:33.740Z,0.93
2023-03-24T06:23:03.332Z,1.10
2023-03-24T06:25:53.666Z,0.68
2023-03-24T06:28:30.156Z,0.98
2023-03-24T06:30:59.524Z,0.88
2023-03-24T06:33:35.274Z,0.85
2023-03-24T06:36:04.176Z,1.10
2023-03-24T06:38:32.434Z,0.70
2023-03-24T06:41:01.719Z,1.08
2023-03-24T06:43:28.844Z,0.80
2023-03-24T06:45:55.643Z,0.98
2023-03-24T06:48:24.475Z,0.80
2023-03-24T06:50:57.722Z,0.90
2023-03-24T06:53:24.364Z,0.90
2023-03-24T06:55:51.559Z,1.15
2023-03-24T06:58:20.065Z,1.25
2023-03-24T07:01:07.877Z,1.08
2023-03-24T07:03:39.365Z,1.20
2023-03-24T07:06:29.813Z,1.02
2023-03-24T07:09:02.299Z,1.20
2023-03-24T07:11:30.059Z,0.85
2023-03-24T07:13:58.922Z,1.10
2023-03-24T07:16:27.301Z,1.73
2023-03-24T07:19:03.993Z,1.15
2023-03-24T07:21:34.185Z,1.17
2023-03-24T07:24:02.184Z,1.13
2023-03-24T07:26:36.321Z,1.10
2023-03-24T07:29:19.016Z,0.70
2023-03-24T07:32:21.068Z,0.95
2023-03-24T07:34:48.633Z,1.20
2023-03-24T07:37:16.373Z,1.00
2023-03-24T07:39:43.310Z,1.13
2023-03-24T07:42:11.807Z,1.35
2023-03-24T07:44:55.497Z,0.70
2023-03-24T07:47:22.697Z,1.13
2023-03-24T07:49:49.342Z,1.17
2023-03-24T07:52:15.885Z,1.00
2023-03-24T07:54:45.808Z,0.93
2023-03-24T07:57:29.007Z,0.88
2023-03-24T07:59:56.189Z,1.38
2023-03-24T08:02:42.848Z,0.70
2023-03-24T08:05:39.204Z,0.77
2023-03-24T08:08:18.578Z,0.80
2023-03-24T08:10:46.546Z,0.77
2023-03-24T08:13:13.310Z,0.98
2023-03-24T08:15:39.880Z,0.60
2023-03-24T08:18:06.951Z,0.80
2023-03-24T08:20:33.591Z,0.95
2023-03-24T08:23:00.869Z,0.70
2023-03-24T08:25:27.724Z,1.30
2023-03-24T08:27:54.581Z,1.05
2023-03-24T08:30:24.024Z,1.23
2023-03-24T08:32:53.478Z,1.00
2023-03-24T08:35:23.707Z,0.90
2023-03-24T08:37:50.792Z,0.90
2023-03-24T08:40:22.456Z,0.90
2023-03-24T08:42:51.661Z,1.00
2023-03-24T08:45:23.783Z,0.98
2023-03-24T08:47:52.158Z,1.08
2023-03-24T08:50:24.840Z,0.80
2023-03-24T08:52:51.553Z,1.05
2023-03-24T08:55:19.284Z,1.05
2023-03-24T08:57:46.233Z,1.17
2023-03-24T09:00:15.256Z,0.77
2023-03-24T09:02:48.054Z,0.88
2023-03-24T09:05:29.377Z,0.80
2023-03-24T09:08:03.673Z,0.70
2023-03-24T09:10:30.342Z,1.02
2023-03-24T09:12:56.904Z,0.98
2023-03-24T09:15:23.757Z,0.60
2023-03-24T09:17:50.559Z,0.80
2023-03-24T09:20:18.547Z,0.80
2023-03-24T09:22:46.508Z,0.80
2023-03-24T09:25:18.178Z,1.15
2023-03-24T09:27:45.083Z,0.80
2023-03-24T09:30:14.360Z,0.77
2023-03-24T09:32:41.008Z,0.60
2023-03-24T09:35:08.615Z,0.52
2023-03-24T09:37:37.404Z,0.68
2023-03-24T09:40:04.994Z,0.55
2023-03-24T09:42:41.188Z,0.70
2023-03-24T09:45:15.336Z,0.70
2023-03-24T09:47:52.892Z,0.75
2023-03-24T09:50:28.797Z,0.60
2023-03-24T09:53:02.560Z,0.77
2023-03-24T09:55:29.363Z,0.70
2023-03-24T09:58:01.409Z,0.60
2023-03-24T10:00:31.824Z,0.70
2023-03-24T10:03:12.757Z,0.40
2023-03-24T10:06:18.240Z,0.50
2023-03-24T10:08:51.724Z,0.60
2023-03-24T10:11:38.235Z,0.35
2023-03-24T10:14:22.829Z,1.08
2023-03-24T10:17:01.224Z,0.60
2023-03-24T10:19:48.452Z,0.77
2023-03-24T10:22:43.487Z,0.90
2023-03-24T10:25:28.756Z,0.55
2023-03-24T10:28:02.727Z,0.63
2023-03-24T10:32:58.274Z,0.93
2023-03-24T10:35:29.865Z,0.68
2023-03-24T10:37:59.692Z,0.57
2023-03-24T10:40:33.951Z,0.57
2023-03-24T10:43:07.096Z,0.80
2023-03-24T10:45:39.634Z,0.63
2023-03-24T10:48:07.419Z,0.60
2023-03-24T10:50:35.972Z,0.70
2023-03-24T10:53:10.027Z,0.65
2023-03-24T10:58:17.740Z,0.52
2023-03-24T11:00:45.332Z,0.40
2023-03-24T11:03:17.152Z,0.50
2023-03-24T11:05:46.093Z,0.57
2023-03-24T11:08:23.545Z,0.50
2023-03-24T11:10:50.096Z,0.40
2023-03-24T11:13:20.118Z,0.38
2023-03-24T11:15:53.922Z,0.30
2023-03-24T11:18:20.963Z,0.80
2023-03-24T11:20:53.582Z,0.30
2023-03-24T11:23:26.608Z,0.57
2023-03-24T11:26:06.879Z,0.50
2023-03-24T11:28:45.338Z,0.45
2023-03-24T11:31:24.319Z,0.75
2023-03-24T11:34:02.750Z,0.45
2023-03-24T11:36:38.372Z,0.40
2023-03-24T11:39:18.857Z,0.90
2023-03-24T11:41:51.730Z,0.50
2023-03-24T11:44:22.473Z,0.45
2023-03-24T11:47:30.397Z,0.40
2023-03-24T11:50:09.342Z,0.52
2023-03-24T11:53:00.319Z,0.90
2023-03-24T11:55:42.485Z,0.40
2023-03-24T11:58:21.444Z,0.47
2023-03-24T12:01:20.220Z,0.47
2023-03-24T12:04:15.451Z,0.30
2023-03-24T12:06:50.867Z,0.43
2023-03-24T12:09:26.391Z,0.30
2023-03-24T12:12:11.661Z,0.50
2023-03-24T12:15:02.954Z,0.50
2023-03-24T12:17:37.602Z,0.55
2023-03-24T12:20:17.216Z,0.52
2023-03-24T12:23:11.786Z,0.60
2023-03-24T12:26:07.489Z,0.52
2023-03-24T12:29:06.250Z,0.55
2023-03-24T12:32:01.361Z,0.47
2023-03-24T12:34:39.940Z,0.60
2023-03-24T12:37:15.427Z,0.60
2023-03-24T12:40:10.096Z,0.43
2023-03-24T12:42:45.757Z,0.60
2023-03-24T12:45:30.968Z,0.77
2023-03-24T12:48:22.545Z,0.50
2023-03-24T12:50:55.333Z,0.60
2023-03-24T12:53:53.751Z,0.32
2023-03-24T12:56:31.873Z,0.55
2023-03-24T12:59:10.095Z,0.60
2023-03-24T13:01:41.537Z,0.60
2023-03-24T13:04:11.205Z,0.73
2023-03-24T13:06:53.240Z,0.60
2023-03-24T13:09:56.188Z,0.47
2023-03-24T13:12:29.822Z,0.50
2023-03-24T13:15:11.945Z,0.63
2023-03-24T13:17:45.670Z,0.90
2023-03-24T13:20:14.780Z,0.60
2023-03-24T13:22:42.286Z,0.63
2023-03-24T13:25:32.127Z,0.60
2023-03-24T13:28:04.466Z,0.52
2023-03-24T13:30:37.268Z,0.57
2023-03-24T13:33:12.534Z,0.73
2023-03-24T13:36:15.658Z,0.50
2023-03-24T13:38:49.716Z,0.60
2023-03-24T13:41:27.162Z,0.30
2023-03-24T13:44:17.505Z,0.30
2023-03-24T13:46:52.250Z,0.38
2023-03-24T13:49:19.269Z,0.20
2023-03-24T13:51:46.792Z,0.40
2023-03-24T13:54:29.312Z,0.47
2023-03-24T13:57:23.559Z,0.38
2023-03-24T14:00:18.922Z,0.45
2023-03-24T14:02:49.402Z,0.20
2023-03-24T14:05:22.977Z,0.32
2023-03-24T14:07:51.437Z,0.40
2023-03-24T14:10:19.050Z,0.38
2023-03-24T14:12:59.118Z,0.40
2023-03-24T14:15:56.168Z,0.38
2023-03-24T14:18:22.807Z,0.17
2023-03-24T14:20:58.383Z,0.28
2023-03-24T14:23:45.808Z,0.20
2023-03-24T14:26:34.147Z,0.60
2023-03-24T14:29:01.172Z,0.40
2023-03-24T14:31:33.395Z,0.50
2023-03-24T14:34:05.825Z,0.35
2023-03-24T14:36:45.874Z,0.28
2023-03-24T14:39:24.321Z,0.38
2023-03-24T14:41:51.830Z,0.20
2023-03-24T14:44:52.318Z,0.30
2023-03-24T14:47:21.547Z,0.40
2023-03-24T14:49:50.686Z,0.30
2023-03-24T14:52:24.826Z,0.40
2023-03-24T14:54:59.261Z,0.30
2023-03-24T14:57:31.719Z,0.32
2023-03-24T15:00:12.010Z,0.30
2023-03-24T15:02:43.499Z,0.60
2023-03-24T15:05:31.540Z,0.20
2023-03-24T15:08:23.358Z,0.20
2023-03-24T15:11:02.212Z,0.10
2023-03-24T15:13:37.368Z,0.28
2023-03-24T15:16:22.096Z,0.30
2023-03-24T15:21:37.564Z,0.30
2023-03-24T15:24:25.858Z,0.38
2023-03-24T15:26:54.036Z,0.38
2023-03-24T15:29:21.144Z,0.10
2023-03-24T15:31:49.041Z,0.20
2023-03-24T15:34:34.001Z,0.35
2023-03-24T15:37:03.572Z,0.32
2023-03-24T15:39:33.672Z,0.32
2023-03-24T15:42:00.705Z,0.28
2023-03-24T15:44:31.016Z,0.30
2023-03-24T15:47:00.169Z,0.40
2023-03-24T15:49:32.839Z,0.20
2023-03-24T15:52:23.247Z,0.30
2023-03-24T15:54:51.374Z,0.30
2023-03-24T15:57:24.038Z,0.20
2023-03-24T15:59:58.138Z,0.30
2023-03-24T16:02:33.923Z,0.30
2023-03-24T16:07:33.828Z,0.30
2023-03-24T16:10:06.142Z,0.35
2023-03-24T16:12:35.055Z,0.25
2023-03-24T16:15:04.820Z,0.40
2023-03-24T16:17:32.656Z,0.30
2023-03-24T16:19:59.226Z,0.30
2023-03-24T16:22:25.863Z,0.40
2023-03-24T16:24:52.432Z,0.30
2023-03-24T16:27:18.985Z,0.22
2023-03-24T16:29:45.646Z,0.30
2023-03-24T16:32:12.269Z,0.40
2023-03-24T16:34:38.820Z,0.30
2023-03-24T16:37:05.454Z,0.10
2023-03-24T16:39:32.368Z,0.50
2023-03-24T16:41:59.093Z,0.43
2023-03-24T16:44:25.906Z,0.57
2023-03-24T16:46:54.267Z,0.43
2023-03-24T16:49:22.215Z,0.20
2023-03-24T16:51:49.170Z,0.10
2023-03-24T16:54:15.729Z,0.20
2023-03-24T16:56:42.560Z,0.20
2023-03-24T16:59:10.494Z,0.30
2023-03-24T17:01:44.280Z,0.30
2023-03-24T17:04:17.462Z,0.20
2023-03-24T17:06:49.263Z,0.20
2023-03-24T17:09:16.830Z,0.10
2023-03-24T17:11:48.155Z,0.30
2023-03-24T17:14:16.475Z,0.20
2023-03-24T17:16:45.255Z,0.28
2023-03-24T17:19:13.817Z,0.20
2023-03-24T17:21:44.910Z,0.20
2023-03-24T17:24:12.983Z,0.20
2023-03-24T17:26:41.281Z,0.25
2023-03-24T17:29:11.143Z,0.38
2023-03-24T17:31:37.798Z,0.10
2023-03-24T17:34:15.232Z,0.22
2023-03-24T17:36:49.764Z,0.28
2023-03-24T17:39:18.169Z,0.25
2023-03-24T17:41:44.888Z,0.30
2023-03-24T17:44:11.470Z,0.20
2023-03-24T17:46:38.188Z,0.40
2023-03-24T17:49:04.932Z,0.30
2023-03-24T17:51:31.556Z,0.40
2023-03-24T17:53:58.320Z,0.25
2023-03-24T17:56:24.849Z,0.47
2023-03-24T17:58:54.695Z,0.27
2023-03-24T18:01:22.032Z,0.13
2023-03-24T18:03:49.640Z,0.22
2023-03-24T18:06:17.211Z,0.20
2023-03-24T18:08:44.405Z,0.20
2023-03-24T18:11:15.072Z,0.20
2023-03-24T18:13:42.871Z,0.20
2023-03-24T18:16:20.648Z,0.20
2023-03-24T18:18:49.043Z,0.20
2023-03-24T18:21:16.034Z,0.22
2023-03-24T18:23:42.704Z,0.30
2023-03-24T18:26:09.552Z,0.20
2023-03-24T18:28:37.805Z,0.20
2023-03-24T18:31:09.514Z,0.20
2023-03-24T18:33:36.048Z,0.15
2023-03-24T18:36:04.022Z,0.20
2023-03-24T18:38:30.578Z,0.30
2023-03-24T18:41:05.635Z,0.20
2023-03-24T18:43:37.417Z,0.10
2023-03-24T18:46:05.710Z,0.20
2023-03-24T18:48:32.311Z,0.30
2023-03-24T18:50:58.867Z,0.20
2023-03-24T18:53:25.541Z,0.17
2023-03-24T18:55:52.185Z,0.17
2023-03-24T18:58:19.174Z,0.20
2023-03-24T19:00:51.935Z,0.10
2023-03-24T19:03:20.187Z,0.10
2023-03-24T19:05:47.070Z,0.22
2023-03-24T19:08:14.766Z,0.10
2023-03-24T19:10:45.654Z,0.10
2023-03-24T19:13:13.849Z,0.20
2023-03-24T19:15:40.657Z,0.20
2023-03-24T19:18:07.768Z,0.10
2023-03-24T19:20:37.744Z,0.15
2023-03-24T19:23:04.322Z,0.40
2023-03-24T19:25:31.774Z,0.30
2023-03-24T19:27:58.540Z,0.20
2023-03-24T19:30:25.624Z,0.20
2023-03-24T19:32:52.185Z,0.13
2023-03-24T19:35:18.844Z,0.35
2023-03-24T19:37:45.646Z,0.20
2023-03-24T19:40:12.589Z,0.20
2023-03-24T19:42:43.316Z,0.25
2023-03-24T19:45:13.071Z,0.20
2023-03-24T19:47:39.635Z,0.20
2023-03-24T19:50:07.658Z,0.30
2023-03-24T19:52:35.004Z,0.40
2023-03-24T19:55:02.055Z,0.30
2023-03-24T19:57:30.531Z,0.20
2023-03-24T19:59:57.435Z,0.20
2023-03-24T20:02:24.896Z,0.40
2023-03-24T20:04:54.970Z,0.25
2023-03-24T20:07:23.185Z,0.30
2023-03-24T20:09:50.314Z,0.30
2023-03-24T20:12:16.837Z,0.47
2023-03-24T20:14:43.480Z,0.10
2023-03-24T20:17:17.684Z,0.25
2023-03-24T20:19:45.071Z,0.25
2023-03-24T20:22:12.052Z,0.20
2023-03-24T20:24:38.838Z,0.32
2023-03-24T20:27:09.118Z,0.20
2023-03-24T20:29:35.865Z,0.25
2023-03-24T20:32:02.656Z,0.20
2023-03-24T20:34:29.185Z,0.30
2023-03-24T20:36:55.997Z,0.30
2023-03-24T20:39:22.981Z,0.28
2023-03-24T20:41:49.508Z,0.22
2023-03-24T20:44:16.199Z,0.30
2023-03-24T20:46:44.233Z,0.28
2023-03-24T20:49:16.438Z,0.30
2023-03-24T20:51:46.189Z,0.28
2023-03-24T20:54:12.749Z,0.20
2023-03-24T20:56:39.351Z,0.20
2023-03-24T20:59:06.875Z,0.40
2023-03-24T21:01:37.313Z,0.30
2023-03-24T21:04:09.306Z,0.20
2023-03-24T21:06:39.223Z,0.28
2023-03-24T21:09:05.941Z,0.20
2023-03-24T21:11:32.906Z,0.20
2023-03-24T21:14:00.214Z,0.30
2023-03-24T21:16:26.912Z,0.20
2023-03-24T21:18:54.616Z,0.40
2023-03-24T21:21:21.737Z,0.35
2023-03-24T21:23:48.433Z,0.40
2023-03-24T21:26:17.903Z,0.20
2023-03-24T21:28:45.284Z,0.20
2023-03-24T21:31:19.040Z,0.30
2023-03-24T21:33:46.022Z,0.30
2023-03-24T21:36:13.329Z,0.30
2023-03-24T21:38:40.068Z,0.22
2023-03-24T21:41:07.492Z,0.10
2023-03-24T21:43:34.765Z,0.20
2023-03-24T21:46:03.500Z,0.20
2023-03-24T21:48:32.772Z,0.20
2023-03-24T21:51:00.205Z,0.20
2023-03-24T21:53:27.172Z,0.30
2023-03-24T21:56:04.875Z,0.20
2023-03-24T21:58:32.698Z,0.32
2023-03-24T22:00:59.996Z,0.28
2023-03-24T22:03:27.110Z,0.10
2023-03-24T22:05:56.962Z,0.30
2023-03-24T22:08:26.530Z,0.30
2023-03-24T22:11:04.008Z,0.30
2023-03-24T22:13:32.196Z,0.20
2023-03-24T22:16:01.326Z,0.47
2023-03-24T22:18:30.367Z,0.30
2023-03-24T22:21:03.160Z,0.40
2023-03-24T22:23:33.221Z,0.28
2023-03-24T22:26:06.578Z,0.30
2023-03-24T22:28:35.730Z,0.20
2023-03-24T22:31:08.876Z,0.32
2023-03-24T22:33:36.418Z,0.30
2023-03-24T22:36:04.256Z,0.30
2023-03-24T22:38:31.495Z,0.30
2023-03-24T22:41:03.652Z,0.30
2023-03-24T22:43:31.448Z,0.20
2023-03-24T22:45:58.203Z,0.28
2023-03-24T22:48:24.782Z,0.30
2023-03-24T22:50:52.154Z,0.40
2023-03-24T22:53:18.788Z,0.20
2023-03-24T22:55:45.404Z,0.20
2023-03-24T22:58:13.248Z,0.20
2023-03-24T23:00:44.817Z,0.40
2023-03-24T23:03:12.084Z,0.38
2023-03-24T23:05:43.682Z,0.13
2023-03-24T23:08:10.382Z,0.40
2023-03-24T23:10:38.789Z,0.30
2023-03-24T23:13:05.370Z,0.40
2023-03-24T23:15:32.024Z,0.30
2023-03-24T23:17:59.668Z,0.20
2023-03-24T23:20:27.961Z,0.40
2023-03-24T23:22:54.643Z,0.20
2023-03-24T23:25:21.519Z,0.38
2023-03-24T23:27:48.295Z,0.32
2023-03-24T23:30:15.967Z,0.30
2023-03-24T23:32:43.944Z,0.30
2023-03-24T23:35:11.301Z,0.30
2023-03-24T23:37:39.416Z,0.35
2023-03-24T23:40:12.975Z,0.30
2023-03-24T23:42:46.386Z,0.30
2023-03-24T23:45:15.043Z,0.30
2023-03-24T23:47:47.613Z,0.60
2023-03-24T23:50:17.115Z,0.30
2023-03-24T23:52:46.398Z,0.30
2023-03-24T23:55:17.710Z,0.32
2023-03-24T23:57:44.678Z,0.28
